createdAt,value
2022-12-27T00:01:18.305Z,99062.22
2022-12-27T00:03:46.140Z,99071.19
2022-12-27T00:06:16.878Z,99069.88
2022-12-27T00:08:45.016Z,99061.75
2022-12-27T00:11:15.046Z,99060.28
2022-12-27T00:13:42.825Z,99057.81
2022-12-27T00:16:12.020Z,99049.69
2022-12-27T00:18:40.644Z,99037.84
2022-12-27T00:21:08.828Z,99040.56
2022-12-27T00:23:39.426Z,99062.44
2022-12-27T00:26:18.592Z,99050.78
2022-12-27T00:28:45.929Z,99059.69
2022-12-27T00:31:14.705Z,99057.53
2022-12-27T00:33:43.536Z,99069.78
2022-12-27T00:36:14.316Z,99059.91
2022-12-27T00:38:41.964Z,99064.81
2022-12-27T00:41:09.537Z,99054.81
2022-12-27T00:43:36.764Z,99046.97
2022-12-27T00:46:05.042Z,99041.88
2022-12-27T00:48:32.543Z,99043.53
2022-12-27T00:51:01.415Z,99041.03
2022-12-27T00:53:31.297Z,99035.81
2022-12-27T00:55:58.843Z,99037.00
2022-12-27T00:58:26.274Z,99036.88
2022-12-27T01:00:53.946Z,99048.41
2022-12-27T01:03:21.189Z,99036.41
2022-12-27T01:05:48.308Z,99032.75
2022-12-27T01:08:15.755Z,99022.16
2022-12-27T01:10:42.912Z,99017.53
2022-12-27T01:13:10.020Z,99021.56
2022-12-27T01:15:37.898Z,99021.31
2022-12-27T01:18:05.012Z,99023.44
2022-12-27T01:20:32.106Z,99030.47
2022-12-27T01:22:59.686Z,99030.84
2022-12-27T01:25:26.794Z,99031.88
2022-12-27T01:27:53.907Z,99036.16
2022-12-27T01:30:21.361Z,99042.22
2022-12-27T01:32:48.494Z,99055.03
2022-12-27T01:35:15.730Z,99043.06
2022-12-27T01:37:43.173Z,99048.41
2022-12-27T01:40:10.851Z,99050.06
2022-12-27T01:42:53.125Z,99071.94
2022-12-27T01:45:32.396Z,99074.16
2022-12-27T01:48:21.908Z,99084.97
2022-12-27T01:50:55.339Z,99091.38
2022-12-27T01:53:25.686Z,99087.47
2022-12-27T01:56:15.916Z,99085.31
2022-12-27T01:58:57.027Z,99101.69
2022-12-27T02:01:27.616Z,99097.06
2022-12-27T02:04:01.181Z,99091.47
2022-12-27T02:06:30.172Z,99085.38
2022-12-27T02:09:00.034Z,99095.91
2022-12-27T02:11:49.397Z,99087.56
2022-12-27T02:14:27.693Z,99091.38
2022-12-27T02:16:57.839Z,99091.50
2022-12-27T02:19:51.690Z,99093.87
2022-12-27T02:22:57.357Z,99101.19
2022-12-27T02:25:43.263Z,99102.41
2022-12-27T02:28:19.569Z,99089.25
2022-12-27T02:30:48.443Z,99088.53
2022-12-27T02:33:20.267Z,99075.16
2022-12-27T02:35:55.683Z,99077.53
2022-12-27T02:38:35.963Z,99070.87
2022-12-27T02:41:25.121Z,99070.03
2022-12-27T02:44:15.031Z,99073.47
2022-12-27T02:47:02.309Z,99080.72
2022-12-27T02:50:00.261Z,99068.25
2022-12-27T02:53:04.460Z,99074.06
2022-12-27T02:55:40.971Z,99077.28
2022-12-27T02:58:18.327Z,99088.56
2022-12-27T03:01:22.739Z,99083.94
2022-12-27T03:03:56.406Z,99086.53
2022-12-27T03:06:59.286Z,99099.34
2022-12-27T03:09:48.427Z,99107.19
2022-12-27T03:12:43.026Z,99100.94
2022-12-27T03:15:57.627Z,99097.72
2022-12-27T03:18:27.761Z,99093.66
2022-12-27T03:21:15.799Z,99098.41
2022-12-27T03:24:03.901Z,99096.59
2022-12-27T03:26:33.236Z,99100.72
2022-12-27T03:29:19.565Z,99103.00
2022-12-27T03:32:09.677Z,99101.41
2022-12-27T03:34:43.346Z,99093.72
2022-12-27T03:37:32.796Z,99090.44
2022-12-27T03:40:39.797Z,99089.03
2022-12-27T03:43:13.770Z,99090.81
2022-12-27T03:46:02.520Z,99102.06
2022-12-27T03:48:33.246Z,99116.16
2022-12-27T03:51:05.303Z,99113.03
2022-12-27T03:53:47.378Z,99119.41
2022-12-27T03:56:14.744Z,99125.25
2022-12-27T03:58:42.262Z,99128.59
2022-12-27T04:01:09.472Z,99129.53
2022-12-27T04:03:37.741Z,99128.28
2022-12-27T04:06:05.169Z,99128.50
2022-12-27T04:08:51.102Z,99132.87
2022-12-27T04:11:37.293Z,99144.75
2022-12-27T04:14:23.050Z,99147.87
2022-12-27T04:17:09.135Z,99152.06
2022-12-27T04:19:54.981Z,99154.34
2022-12-27T04:22:41.096Z,99148.91
2022-12-27T04:25:27.456Z,99146.84
2022-12-27T04:28:14.138Z,99156.41
2022-12-27T04:30:59.785Z,99155.97
2022-12-27T04:33:45.937Z,99145.97
2022-12-27T04:36:13.113Z,99154.50
2022-12-27T04:38:40.726Z,99153.69
2022-12-27T04:41:26.446Z,99169.41
2022-12-27T04:44:12.720Z,99173.66
2022-12-27T04:46:58.961Z,99170.56
2022-12-27T04:49:45.984Z,99170.87
2022-12-27T04:52:37.434Z,99185.37
2022-12-27T04:55:17.403Z,99182.81
2022-12-27T04:57:44.703Z,99203.88
2022-12-27T05:00:31.913Z,99200.53
2022-12-27T05:03:00.014Z,99199.28
2022-12-27T05:05:27.823Z,99213.06
2022-12-27T05:08:15.089Z,99217.66
2022-12-27T05:11:01.173Z,99223.94
2022-12-27T05:13:46.945Z,99229.34
2022-12-27T05:16:14.867Z,99234.88
2022-12-27T05:18:42.370Z,99229.91
2022-12-27T05:21:09.820Z,99244.56
2022-12-27T05:24:01.733Z,99242.19
2022-12-27T05:26:36.167Z,99244.88
2022-12-27T05:29:03.641Z,99260.53
2022-12-27T05:31:31.392Z,99252.41
2022-12-27T05:33:58.680Z,99255.22
2022-12-27T05:36:27.206Z,99258.31
2022-12-27T05:38:54.461Z,99271.34
2022-12-27T05:41:21.691Z,99266.44
2022-12-27T05:43:49.425Z,99275.38
2022-12-27T05:46:19.734Z,99267.56
2022-12-27T05:48:47.899Z,99274.12
2022-12-27T05:51:20.344Z,99280.34
2022-12-27T05:53:48.664Z,99288.06
2022-12-27T05:56:19.698Z,99291.00
2022-12-27T05:58:47.709Z,99307.03
2022-12-27T06:01:16.742Z,99307.53
2022-12-27T06:03:44.871Z,99307.19
2022-12-27T06:06:12.717Z,99315.37
2022-12-27T06:08:40.063Z,99317.78
2022-12-27T06:11:08.949Z,99318.91
2022-12-27T06:13:37.456Z,99319.69
2022-12-27T06:19:35.667Z,99329.59
2022-12-27T06:22:03.183Z,99327.28
2022-12-27T06:24:30.364Z,99338.19
2022-12-27T06:26:57.571Z,99334.62
2022-12-27T06:32:55.627Z,99357.91
2022-12-27T06:35:23.192Z,99369.09
2022-12-27T06:37:50.458Z,99368.72
2022-12-27T06:40:18.298Z,99375.50
2022-12-27T06:42:45.883Z,99381.09
2022-12-27T06:45:13.150Z,99382.38
2022-12-27T06:47:41.077Z,99381.53
2022-12-27T06:50:08.932Z,99383.22
2022-12-27T06:52:36.235Z,99383.03
2022-12-27T06:55:04.009Z,99383.94
2022-12-27T06:57:31.530Z,99385.59
2022-12-27T06:59:58.718Z,99381.13
2022-12-27T07:02:26.004Z,99386.97
2022-12-27T07:04:53.529Z,99388.75
2022-12-27T07:07:20.755Z,99393.00
2022-12-27T07:09:48.053Z,99377.19
2022-12-27T07:12:15.751Z,99389.28
2022-12-27T07:14:42.983Z,99385.06
2022-12-27T07:17:10.206Z,99389.22
2022-12-27T07:19:37.945Z,99390.19
2022-12-27T07:22:05.177Z,99383.94
2022-12-27T07:24:33.405Z,99397.59
2022-12-27T07:27:02.183Z,99392.09
2022-12-27T07:29:29.765Z,99380.25
2022-12-27T07:31:59.416Z,99382.31
2022-12-27T07:37:33.489Z,99371.47
2022-12-27T07:40:01.238Z,99376.03
2022-12-27T07:42:29.432Z,99386.75
2022-12-27T07:44:56.638Z,99390.28
2022-12-27T07:47:24.177Z,99398.13
2022-12-27T07:49:51.359Z,99408.59
2022-12-27T07:52:18.612Z,99414.31
2022-12-27T07:54:46.143Z,99429.34
2022-12-27T07:57:13.381Z,99438.75
2022-12-27T07:59:40.690Z,99439.47
2022-12-27T08:02:09.782Z,99441.88
2022-12-27T08:04:38.400Z,99451.28
2022-12-27T08:07:10.454Z,99440.44
2022-12-27T08:09:39.328Z,99458.38
2022-12-27T08:12:07.752Z,99456.62
2022-12-27T08:14:35.141Z,99449.94
2022-12-27T08:17:05.987Z,99466.87
2022-12-27T08:19:33.318Z,99460.69
2022-12-27T08:22:00.451Z,99469.25
2022-12-27T08:24:27.977Z,99477.09
2022-12-27T08:26:55.205Z,99477.59
2022-12-27T08:29:22.405Z,99489.78
2022-12-27T08:31:49.923Z,99481.75
2022-12-27T08:34:17.115Z,99489.63
2022-12-27T08:36:54.650Z,99500.97
2022-12-27T08:39:23.206Z,99507.38
2022-12-27T08:41:52.585Z,99502.25
2022-12-27T08:44:19.893Z,99517.09
2022-12-27T08:46:54.355Z,99511.88
2022-12-27T08:49:21.354Z,99509.78
2022-12-27T08:51:49.935Z,99518.72
2022-12-27T08:54:17.106Z,99514.94
2022-12-27T08:56:45.003Z,99514.94
2022-12-27T08:59:12.484Z,99535.91
2022-12-27T09:01:39.619Z,99532.59
2022-12-27T09:04:06.803Z,99529.97
2022-12-27T09:06:34.510Z,99519.75
2022-12-27T09:09:03.336Z,99528.53
2022-12-27T09:11:33.501Z,99540.12
2022-12-27T09:14:03.213Z,99541.34
2022-12-27T09:16:30.680Z,99551.37
2022-12-27T09:18:59.064Z,99522.97
2022-12-27T09:21:29.359Z,99530.38
2022-12-27T09:23:56.472Z,99533.41
2022-12-27T09:26:28.663Z,99527.97
2022-12-27T09:28:56.760Z,99519.69
2022-12-27T09:31:25.084Z,99533.91
2022-12-27T09:33:52.812Z,99537.69
2022-12-27T09:36:23.062Z,99543.47
2022-12-27T09:38:52.708Z,99563.59
2022-12-27T09:42:44.399Z,99558.75
2022-12-27T09:44:56.791Z,99545.53
2022-12-27T09:47:29.723Z,99553.59
2022-12-27T09:50:16.562Z,99560.38
2022-12-27T09:52:57.200Z,99564.38
2022-12-27T09:55:35.223Z,99547.81
2022-12-27T09:58:33.909Z,99580.50
2022-12-27T10:01:02.099Z,99574.00
2022-12-27T10:03:30.754Z,99585.62
2022-12-27T10:06:36.595Z,99586.12
2022-12-27T10:09:19.483Z,99579.94
2022-12-27T10:11:51.096Z,99584.88
2022-12-27T10:14:27.843Z,99587.72
2022-12-27T10:17:18.248Z,99574.87
2022-12-27T10:20:07.994Z,99592.22
2022-12-27T10:22:47.583Z,99594.69
2022-12-27T10:25:19.043Z,99599.19
2022-12-27T10:31:19.942Z,99606.31
2022-12-27T10:33:48.322Z,99587.72
2022-12-27T10:36:19.200Z,99584.53
2022-12-27T10:38:46.434Z,99598.22
2022-12-27T10:41:31.018Z,99616.75
2022-12-27T10:43:58.226Z,99600.84
2022-12-27T10:46:32.486Z,99569.84
2022-12-27T10:49:21.848Z,99582.41
2022-12-27T10:51:52.020Z,99585.28
2022-12-27T10:54:27.879Z,99595.63
2022-12-27T10:56:56.597Z,99586.53
2022-12-27T10:59:28.245Z,99613.22
2022-12-27T11:02:05.891Z,99605.22
2022-12-27T11:04:33.198Z,99608.19
2022-12-27T11:07:03.691Z,99663.44
2022-12-27T11:09:50.140Z,99633.88
2022-12-27T11:12:24.921Z,99618.59
2022-12-27T11:14:59.474Z,99614.91
2022-12-27T11:17:30.393Z,99630.16
2022-12-27T11:19:59.113Z,99612.84
2022-12-27T11:22:26.933Z,99603.53
2022-12-27T11:24:57.270Z,99620.69
2022-12-27T11:27:26.767Z,99627.34
2022-12-27T11:29:58.336Z,99598.91
2022-12-27T11:32:25.719Z,99605.84
2022-12-27T11:34:54.794Z,99597.13
2022-12-27T11:37:25.013Z,99622.13
2022-12-27T11:40:11.267Z,99611.16
2022-12-27T11:42:46.151Z,99608.28
2022-12-27T11:45:19.298Z,99616.34
2022-12-27T11:47:53.584Z,99626.97
2022-12-27T11:50:26.989Z,99621.66
2022-12-27T11:53:09.511Z,99615.44
2022-12-27T11:56:06.053Z,99627.50
2022-12-27T11:58:38.759Z,99622.03
2022-12-27T12:01:54.758Z,99611.34
2022-12-27T12:04:43.759Z,99620.34
2022-12-27T12:07:10.954Z,99601.28
2022-12-27T12:10:15.629Z,99608.16
2022-12-27T12:12:48.650Z,99599.63
2022-12-27T12:15:34.002Z,99613.53
2022-12-27T12:18:16.484Z,99599.34
2022-12-27T12:20:50.925Z,99603.94
2022-12-27T12:23:21.312Z,99594.31
2022-12-27T12:26:04.419Z,99593.44
2022-12-27T12:29:00.376Z,99589.37
2022-12-27T12:31:37.606Z,99585.03
2022-12-27T12:34:14.870Z,99589.44
2022-12-27T12:36:52.890Z,99586.59
2022-12-27T12:39:34.540Z,99600.97
2022-12-27T12:42:18.580Z,99594.97
2022-12-27T12:44:59.284Z,99597.50
2022-12-27T12:47:46.482Z,99608.56
2022-12-27T12:50:46.755Z,99602.72
2022-12-27T12:53:54.239Z,99594.19
2022-12-27T12:56:42.905Z,99638.94
2022-12-27T12:59:24.141Z,99614.16
2022-12-27T13:02:19.528Z,99627.31
2022-12-27T13:05:24.725Z,99611.63
2022-12-27T13:08:13.314Z,99623.12
2022-12-27T13:10:59.610Z,99628.13
2022-12-27T13:13:51.494Z,99615.31
2022-12-27T13:16:41.257Z,99622.34
2022-12-27T13:19:41.817Z,99617.91
2022-12-27T13:22:17.382Z,99647.25
2022-12-27T13:24:53.513Z,99651.09
2022-12-27T13:27:48.927Z,99674.19
2022-12-27T13:30:16.166Z,99663.81
2022-12-27T13:33:06.800Z,99654.94
2022-12-27T13:35:54.446Z,99666.66
2022-12-27T13:38:38.409Z,99678.12
2022-12-27T13:41:33.013Z,99669.25
2022-12-27T13:44:28.421Z,99686.91
2022-12-27T13:47:04.651Z,99682.78
2022-12-27T13:49:39.183Z,99693.50
2022-12-27T13:52:09.321Z,99699.69
2022-12-27T13:54:52.511Z,99707.62
2022-12-27T13:57:25.522Z,99710.47
2022-12-27T14:00:02.026Z,99725.81
2022-12-27T14:02:45.621Z,99731.31
2022-12-27T14:05:48.919Z,99729.25
2022-12-27T14:08:37.648Z,99735.38
2022-12-27T14:11:36.154Z,99745.62
2022-12-27T14:14:04.568Z,99765.75
2022-12-27T14:16:57.570Z,99762.56
2022-12-27T14:19:43.308Z,99766.97
2022-12-27T14:22:42.731Z,99779.47
2022-12-27T14:25:47.034Z,99777.34
2022-12-27T14:28:39.320Z,99776.03
2022-12-27T14:31:32.851Z,99781.34
2022-12-27T14:34:09.614Z,99783.34
2022-12-27T14:36:51.894Z,99783.50
2022-12-27T14:39:37.987Z,99779.34
2022-12-27T14:42:27.028Z,99775.69
2022-12-27T14:45:27.343Z,99776.41
2022-12-27T14:48:21.338Z,99785.47
2022-12-27T14:51:58.714Z,99779.75
2022-12-27T14:54:34.325Z,99784.59
2022-12-27T14:57:16.911Z,99796.47
2022-12-27T15:00:11.939Z,99804.78
2022-12-27T15:02:58.338Z,99796.31
2022-12-27T15:05:47.323Z,99795.78
2022-12-27T15:08:43.037Z,99795.09
2022-12-27T15:11:24.320Z,99803.13
2022-12-27T15:14:19.717Z,99805.97
2022-12-27T15:16:59.511Z,99798.25
2022-12-27T15:19:46.023Z,99814.75
2022-12-27T15:22:44.176Z,99812.16
2022-12-27T15:25:50.735Z,99813.44
2022-12-27T15:28:41.067Z,99817.22
2022-12-27T15:31:14.445Z,99822.44
2022-12-27T15:34:09.187Z,99831.88
2022-12-27T15:36:42.135Z,99828.53
2022-12-27T15:39:33.893Z,99832.00
2022-12-27T15:42:37.947Z,99837.84
2022-12-27T15:45:36.898Z,99838.88
2022-12-27T15:48:22.603Z,99840.06
2022-12-27T15:51:20.199Z,99854.28
2022-12-27T15:54:28.947Z,99862.59
2022-12-27T15:57:16.758Z,99865.59
2022-12-27T15:59:51.802Z,99861.88
2022-12-27T16:02:26.606Z,99861.88
2022-12-27T16:05:06.300Z,99863.78
2022-12-27T16:07:39.389Z,99857.16
2022-12-27T16:10:30.324Z,99857.13
2022-12-27T16:13:01.781Z,99856.81
2022-12-27T16:15:45.221Z,99856.00
2022-12-27T16:18:32.178Z,99861.06
2022-12-27T16:21:01.140Z,99861.75
2022-12-27T16:23:34.057Z,99864.41
2022-12-27T16:26:12.151Z,99866.19
2022-12-27T16:28:40.194Z,99868.12
2022-12-27T16:31:11.802Z,99866.41
2022-12-27T16:33:41.005Z,99868.81
2022-12-27T16:36:11.618Z,99877.50
2022-12-27T16:38:43.557Z,99874.00
2022-12-27T16:41:32.735Z,99879.84
2022-12-27T16:43:59.838Z,99885.94
2022-12-27T16:47:04.932Z,99891.09
2022-12-27T16:49:32.057Z,99893.97
2022-12-27T16:52:37.426Z,99900.84
2022-12-27T16:55:04.437Z,99899.50
2022-12-27T16:57:44.286Z,99901.94
2022-12-27T17:00:11.424Z,99903.66
2022-12-27T17:02:39.426Z,99893.31
2022-12-27T17:05:15.562Z,99900.38
2022-12-27T17:07:55.914Z,99886.84
2022-12-27T17:10:31.926Z,99891.72
2022-12-27T17:13:09.829Z,99884.44
2022-12-27T17:15:51.630Z,99882.97
2022-12-27T17:18:48.359Z,99879.63
2022-12-27T17:21:30.663Z,99880.88
2022-12-27T17:24:09.775Z,99892.50
2022-12-27T17:26:58.582Z,99905.38
2022-12-27T17:29:44.800Z,99921.81
2022-12-27T17:32:38.726Z,99918.25
2022-12-27T17:35:44.834Z,99920.00
2022-12-27T17:38:36.480Z,99927.53
2022-12-27T17:41:49.872Z,99926.47
2022-12-27T17:44:47.651Z,99929.12
2022-12-27T17:47:37.179Z,99932.00
2022-12-27T17:50:07.336Z,99936.53
2022-12-27T17:52:53.616Z,99930.59
2022-12-27T17:55:42.696Z,99929.78
2022-12-27T17:58:12.864Z,99936.00
2022-12-27T18:00:57.253Z,99945.53
2022-12-27T18:03:31.516Z,99947.78
2022-12-27T18:05:58.644Z,99959.66
2022-12-27T18:08:29.083Z,99955.78
2022-12-27T18:10:57.365Z,99961.31
2022-12-27T18:13:26.616Z,99965.97
2022-12-27T18:15:55.986Z,99969.66
2022-12-27T18:18:29.758Z,99970.16
2022-12-27T18:21:03.966Z,99968.75
2022-12-27T18:23:42.166Z,99965.34
2022-12-27T18:26:14.676Z,99961.00
2022-12-27T18:28:42.783Z,99963.06
2022-12-27T18:31:27.186Z,99960.56
2022-12-27T18:33:55.478Z,99961.34
2022-12-27T18:36:42.230Z,99962.66
2022-12-27T18:39:30.857Z,99970.84
2022-12-27T18:41:59.949Z,99970.87
2022-12-27T18:44:30.614Z,99977.13
2022-12-27T18:47:00.736Z,99980.63
2022-12-27T18:49:33.362Z,99983.28
2022-12-27T18:52:01.602Z,99978.53
2022-12-27T18:54:28.675Z,99978.87
2022-12-27T18:56:56.925Z,99986.81
2022-12-27T18:59:27.981Z,99981.06
2022-12-27T19:01:57.083Z,99982.94
2022-12-27T19:04:32.515Z,99977.09
2022-12-27T19:07:09.511Z,99974.69
2022-12-27T19:09:40.880Z,99974.06
2022-12-27T19:12:38.516Z,99977.47
2022-12-27T19:15:47.100Z,99977.50
2022-12-27T19:18:22.361Z,99984.88
2022-12-27T19:21:02.772Z,99990.41
2022-12-27T19:23:36.640Z,99989.62
2022-12-27T19:26:04.730Z,99996.34
2022-12-27T19:28:33.113Z,99991.94
2022-12-27T19:31:21.896Z,99995.34
2022-12-27T19:33:54.948Z,99985.03
2022-12-27T19:36:27.070Z,99987.66
2022-12-27T19:38:57.216Z,99984.41
2022-12-27T19:41:24.688Z,99983.72
2022-12-27T19:43:52.224Z,99986.37
2022-12-27T19:46:19.966Z,99976.16
2022-12-27T19:49:07.585Z,99976.16
2022-12-27T19:51:37.232Z,99969.34
2022-12-27T19:54:12.084Z,99975.38
2022-12-27T19:56:39.643Z,99974.47
2022-12-27T19:59:06.873Z,99971.97
2022-12-27T20:01:34.983Z,99972.75
2022-12-27T20:04:02.466Z,99975.19
2022-12-27T20:06:29.646Z,99976.13
2022-12-27T20:08:57.487Z,99982.75
2022-12-27T20:11:26.351Z,99981.06
2022-12-27T20:13:53.555Z,99976.91
2022-12-27T20:16:20.886Z,99979.63
2022-12-27T20:18:48.366Z,99982.38
2022-12-27T20:21:17.990Z,99990.00
2022-12-27T20:23:45.780Z,99995.06
2022-12-27T20:26:17.784Z,99985.75
2022-12-27T20:28:44.958Z,99993.66
2022-12-27T20:31:17.578Z,99995.25
2022-12-27T20:33:44.908Z,99999.72
2022-12-27T20:36:12.441Z,99992.72
2022-12-27T20:38:39.898Z,99988.34
2022-12-27T20:41:12.860Z,99987.44
2022-12-27T20:43:41.222Z,99989.19
2022-12-27T20:46:14.230Z,99995.00
2022-12-27T20:48:43.658Z,99995.00
2022-12-27T20:51:14.030Z,99997.94
2022-12-27T20:53:41.584Z,99996.13
2022-12-27T20:56:09.152Z,99998.66
2022-12-27T20:58:36.529Z,99998.41
2022-12-27T21:01:11.869Z,100007.50
2022-12-27T21:03:39.832Z,100003.22
2022-12-27T21:06:13.618Z,100008.41
2022-12-27T21:08:47.879Z,99996.56
2022-12-27T21:11:22.659Z,100001.00
2022-12-27T21:13:49.901Z,99992.50
2022-12-27T21:16:23.008Z,100007.16
2022-12-27T21:18:50.461Z,100005.56
2022-12-27T21:21:20.774Z,99999.47
2022-12-27T21:23:48.733Z,100006.47
2022-12-27T21:26:21.419Z,100008.94
2022-12-27T21:28:49.235Z,100010.63
2022-12-27T21:31:17.712Z,100016.56
2022-12-27T21:33:45.539Z,100021.66
2022-12-27T21:36:15.221Z,100020.94
2022-12-27T21:38:42.403Z,100029.72
2022-12-27T21:41:15.618Z,100013.41
2022-12-27T21:43:43.868Z,100020.47
2022-12-27T21:46:17.453Z,100018.91
2022-12-27T21:48:45.903Z,100011.19
2022-12-27T21:51:15.894Z,100010.22
2022-12-27T21:53:43.419Z,100011.94
2022-12-27T21:56:12.481Z,100021.25
2022-12-27T21:58:40.713Z,100028.03
2022-12-27T22:01:13.069Z,100022.00
2022-12-27T22:03:42.307Z,100014.19
2022-12-27T22:06:14.288Z,100016.59
2022-12-27T22:08:42.764Z,100011.38
2022-12-27T22:11:10.596Z,100007.09
2022-12-27T22:13:37.972Z,100013.06
2022-12-27T22:16:07.949Z,100012.25
2022-12-27T22:18:43.028Z,100019.00
2022-12-27T22:21:15.668Z,100019.84
2022-12-27T22:23:45.720Z,100028.41
2022-12-27T22:26:25.171Z,100023.25
2022-12-27T22:28:52.728Z,100019.87
2022-12-27T22:31:22.619Z,100026.91
2022-12-27T22:33:50.538Z,100013.94
2022-12-27T22:36:20.400Z,100009.03
2022-12-27T22:38:50.357Z,100011.56
2022-12-27T22:41:20.011Z,100021.09
2022-12-27T22:43:52.699Z,100031.47
2022-12-27T22:46:20.436Z,100023.03
2022-12-27T22:48:56.496Z,100019.63
2022-12-27T22:51:30.773Z,100005.88
2022-12-27T22:53:59.475Z,100008.38
2022-12-27T22:56:40.219Z,99995.25
2022-12-27T22:59:08.835Z,99999.53
2022-12-27T23:01:36.316Z,99994.44
2022-12-27T23:04:05.034Z,99997.06
2022-12-27T23:06:33.756Z,100005.03
2022-12-27T23:09:01.375Z,100004.25
2022-12-27T23:11:31.344Z,99995.91
2022-12-27T23:14:01.677Z,99991.75
2022-12-27T23:16:35.942Z,99988.28
2022-12-27T23:19:03.937Z,99983.84
2022-12-27T23:21:31.102Z,99988.28
2022-12-27T23:23:58.342Z,99990.06
2022-12-27T23:26:25.821Z,99995.41
2022-12-27T23:28:53.423Z,99993.75
2022-12-27T23:31:22.645Z,100001.50
2022-12-27T23:33:50.749Z,99993.03
2022-12-27T23:36:18.857Z,99996.62
2022-12-27T23:38:46.603Z,99988.13
2022-12-27T23:41:16.874Z,99971.66
2022-12-27T23:43:53.215Z,99977.44
2022-12-27T23:46:28.449Z,99969.87
2022-12-27T23:48:57.167Z,99971.00
2022-12-27T23:51:25.005Z,99972.03
2022-12-27T23:53:52.710Z,99971.44
2022-12-27T23:56:25.537Z,99976.66
2022-12-27T23:58:54.855Z,99966.47
